Caroline Guidry — WDB2770 — position and weather

sailwx.info

Track history (hours):
 
Tides and Currents Weather Stations Pressure Air Temp Water Temp Dewpoint Dewpoint Depression Visibility Wind Speed Wind Dir Waves Ship Positions

Caroline Guidry

Owner: DANIELLE MARINE TOWING II LLC, CUT OFF, LA. More information available from US FCC via Universal Licensing System and Coast Guard Vessel Documentation Center.

Last reported at 2017-Nov-14 12:07 UTC. Time now 2017-Nov-20 13:49 UTC.
Position N 29°42' W 094°59'.

Length 16 m; draft 2.3 m.

Type: . MMSI: 366879570.

Date/timePositionNaut miles runAvg speedWind from/ knotsBaromVisibWave heightAir tempDewpointWater temp
2017-Nov-14 12:07N 29°42' W 094°59'1 4.5
2017-Nov-14 11:57N 29°41' W 094°59'2 0.4
2017-Nov-14 06:19N 29°41' W 094°56'2 5.1
2017-Nov-14 05:58N 29°41' W 094°58'2 4.3
2017-Nov-14 05:24N 29°42' W 095°01'6 3.9
2017-Nov-14 03:47N 29°44' W 095°08'0 0.2
2017-Nov-14 03:30N 29°44' W 095°08'0 0.0
2017-Nov-14 02:55N 29°44' W 095°08'0 0.3
2017-Nov-14 02:20N 29°44' W 095°08'0 0.0
2017-Nov-14 01:58N 29°44' W 095°08'0 0.0
2017-Nov-14 01:29N 29°44' W 095°08'0 0.0
2017-Nov-14 00:59N 29°44' W 095°08'0 0.0
2017-Nov-12 16:00N 29°44' W 095°08'2 3.0
2017-Nov-12 15:24N 29°45' W 095°10'2 1.9
2017-Nov-12 14:35N 29°45' W 095°12'1 5.2
2017-Nov-12 14:20N 29°44' W 095°13'2 4.4
2017-Nov-12 13:54N 29°43' W 095°15'1 2.5
2017-Nov-12 13:31N 29°43' W 095°16'1 1.6
2017-Nov-12 12:59N 29°43' W 095°15'3 5.8
2017-Nov-12 12:30N 29°44' W 095°12'3 6.5
2017-Nov-12 12:00N 29°44' W 095°08'  
2017-Nov-10 04:21N 29°44' W 095°08'3 5.8
2017-Nov-10 03:46N 29°45' W 095°12'2 5.5
2017-Nov-10 03:28N 29°43' W 095°13'1 1.4
2017-Nov-10 03:00N 29°44' W 095°14'0 0.1
2017-Nov-10 02:30N 29°44' W 095°14'0 0.1
2017-Nov-10 02:00N 29°43' W 095°14'1 1.0
2017-Nov-10 01:29N 29°44' W 095°13'3 5.3
2017-Nov-10 00:56N 29°45' W 095°10'  
Track history (hours):
 
Tides and Currents Weather Stations Pressure Air Temp Water Temp Dewpoint Dewpoint Depression Visibility Wind Speed Wind Dir Waves Ship Positions

Caroline Guidry

Owner: DANIELLE MARINE TOWING II LLC, CUT OFF, LA. More information available from US FCC via Universal Licensing System and Coast Guard Vessel Documentation Center.

Last reported at 2017-Nov-14 12:07 UTC. Time now 2017-Nov-20 13:49 UTC.
Position N 29°42' W 094°59'.

Length 16 m; draft 2.3 m.

Type: . MMSI: 366879570.

Date/timePositionNaut miles runAvg speedWind from/ knotsBaromVisibWave heightAir tempDewpointWater temp
2017-Nov-14 12:07N 29°42' W 094°59'1 4.5
2017-Nov-14 11:57N 29°41' W 094°59'2 0.4
2017-Nov-14 06:19N 29°41' W 094°56'2 5.1
2017-Nov-14 05:58N 29°41' W 094°58'2 4.3
2017-Nov-14 05:24N 29°42' W 095°01'6 3.9
2017-Nov-14 03:47N 29°44' W 095°08'0 0.2
2017-Nov-14 03:30N 29°44' W 095°08'0 0.0
2017-Nov-14 02:55N 29°44' W 095°08'0 0.3
2017-Nov-14 02:20N 29°44' W 095°08'0 0.0
2017-Nov-14 01:58N 29°44' W 095°08'0 0.0
2017-Nov-14 01:29N 29°44' W 095°08'0 0.0
2017-Nov-14 00:59N 29°44' W 095°08'0 0.0
2017-Nov-12 16:00N 29°44' W 095°08'2 3.0
2017-Nov-12 15:24N 29°45' W 095°10'2 1.9
2017-Nov-12 14:35N 29°45' W 095°12'1 5.2
2017-Nov-12 14:20N 29°44' W 095°13'2 4.4
2017-Nov-12 13:54N 29°43' W 095°15'1 2.5
2017-Nov-12 13:31N 29°43' W 095°16'1 1.6
2017-Nov-12 12:59N 29°43' W 095°15'3 5.8
2017-Nov-12 12:30N 29°44' W 095°12'3 6.5
2017-Nov-12 12:00N 29°44' W 095°08'  
2017-Nov-10 04:21N 29°44' W 095°08'3 5.8
2017-Nov-10 03:46N 29°45' W 095°12'2 5.5
2017-Nov-10 03:28N 29°43' W 095°13'1 1.4
2017-Nov-10 03:00N 29°44' W 095°14'0 0.1
2017-Nov-10 02:30N 29°44' W 095°14'0 0.1
2017-Nov-10 02:00N 29°43' W 095°14'1 1.0
2017-Nov-10 01:29N 29°44' W 095°13'3 5.3
2017-Nov-10 00:56N 29°45' W 095°10'  

Dump ship's entire track history